createdAt,value
2023-04-02T00:01:33.297Z,54.09
2023-04-02T00:04:06.012Z,54.24
2023-04-02T00:06:34.154Z,54.19
2023-04-02T00:09:18.249Z,54.06
2023-04-02T00:11:47.238Z,53.91
2023-04-02T00:14:17.522Z,54.04
2023-04-02T00:16:44.524Z,53.92
2023-04-02T00:19:18.483Z,53.91
2023-04-02T00:21:45.763Z,53.96
2023-04-02T00:24:20.644Z,53.90
2023-04-02T00:26:52.463Z,54.24
2023-04-02T00:29:19.494Z,54.07
2023-04-02T00:31:52.444Z,53.98
2023-04-02T00:34:28.162Z,53.99
2023-04-02T00:36:55.182Z,53.79
2023-04-02T00:39:32.006Z,54.11
2023-04-02T00:42:05.209Z,53.91
2023-04-02T00:44:42.984Z,53.99
2023-04-02T00:47:20.589Z,53.95
2023-04-02T00:49:47.607Z,53.84
2023-04-02T00:55:43.165Z,53.95
2023-04-02T00:58:35.822Z,54.13
2023-04-02T01:01:04.080Z,53.90
2023-04-02T01:03:36.963Z,53.96
2023-04-02T01:06:11.966Z,54.10
2023-04-02T01:09:09.574Z,54.29
2023-04-02T01:12:25.603Z,53.91
2023-04-02T01:15:16.100Z,54.02
2023-04-02T01:18:03.683Z,54.17
2023-04-02T01:20:44.345Z,53.87
2023-04-02T01:23:17.260Z,53.88
2023-04-02T01:25:47.012Z,54.08
2023-04-02T01:28:22.342Z,53.93
2023-04-02T01:30:55.792Z,54.08
2023-04-02T01:33:32.658Z,54.07
2023-04-02T01:36:09.035Z,53.86
2023-04-02T01:38:43.635Z,53.92
2023-04-02T01:41:17.252Z,54.37
2023-04-02T01:43:44.002Z,53.86
2023-04-02T01:46:30.120Z,54.02
2023-04-02T01:48:57.949Z,53.82
2023-04-02T01:54:14.459Z,53.96
2023-04-02T01:56:41.471Z,54.00
2023-04-02T01:59:08.438Z,53.85
2023-04-02T02:01:52.173Z,54.17
2023-04-02T02:04:19.193Z,53.84
2023-04-02T02:06:50.406Z,54.21
2023-04-02T02:09:26.276Z,53.92
2023-04-02T02:11:53.449Z,54.01
2023-04-02T02:14:23.821Z,54.19
2023-04-02T02:17:20.239Z,54.20
2023-04-02T02:20:11.511Z,53.84
2023-04-02T02:22:44.760Z,54.01
2023-04-02T02:25:15.851Z,54.34
2023-04-02T02:27:49.370Z,54.27
2023-04-02T02:30:25.843Z,54.13
2023-04-02T02:33:03.014Z,54.09
2023-04-02T02:35:51.094Z,54.61
2023-04-02T02:38:55.756Z,54.03
2023-04-02T02:41:40.340Z,53.85
2023-04-02T02:44:15.622Z,54.10
2023-04-02T02:46:55.196Z,53.91
2023-04-02T02:49:27.068Z,54.04
2023-04-02T02:52:11.212Z,53.90
2023-04-02T02:54:40.802Z,53.70
2023-04-02T02:57:10.875Z,53.95
2023-04-02T02:59:37.787Z,53.83
2023-04-02T03:02:04.828Z,54.04
2023-04-02T03:04:36.087Z,53.97
2023-04-02T03:07:06.923Z,53.73
2023-04-02T03:09:42.364Z,54.12
2023-04-02T03:12:37.358Z,53.89
2023-04-02T03:15:41.566Z,53.90
2023-04-02T03:18:36.482Z,53.90
2023-04-02T03:24:29.181Z,53.91
2023-04-02T03:27:01.479Z,53.90
2023-04-02T03:29:31.718Z,54.11
2023-04-02T03:32:03.496Z,53.80
2023-04-02T03:37:24.246Z,53.63
2023-04-02T03:40:20.337Z,54.02
2023-04-02T03:42:53.657Z,54.06
2023-04-02T03:45:25.838Z,54.03
2023-04-02T03:48:05.975Z,53.95
2023-04-02T03:50:52.615Z,54.13
2023-04-02T03:53:22.946Z,53.80
2023-04-02T03:55:49.763Z,53.86
2023-04-02T04:01:31.335Z,54.11
2023-04-02T04:04:06.989Z,53.88
2023-04-02T04:06:36.727Z,54.12
2023-04-02T04:09:19.808Z,54.10
2023-04-02T04:11:49.848Z,53.96
2023-04-02T04:17:30.364Z,54.05
2023-04-02T04:20:29.103Z,54.13
2023-04-02T04:23:12.614Z,54.10
2023-04-02T04:35:15.683Z,54.51
2023-04-02T04:37:44.388Z,54.51
2023-04-02T04:40:17.587Z,54.56
2023-04-02T04:42:44.445Z,54.46
2023-04-02T05:46:43.680Z,54.45
2023-04-02T05:49:33.533Z,54.01
2023-04-02T05:52:01.958Z,54.23
2023-04-02T06:02:46.631Z,54.51
2023-04-02T06:05:16.075Z,54.37
2023-04-02T06:08:01.498Z,54.41
2023-04-02T06:10:30.182Z,54.53
2023-04-02T06:13:08.708Z,54.47
2023-04-02T06:15:36.466Z,54.73
2023-04-02T06:18:14.220Z,54.02
2023-04-02T06:20:41.432Z,53.72
2023-04-02T06:23:18.079Z,52.68
2023-04-02T06:26:00.815Z,52.50
2023-04-02T06:28:30.963Z,52.46
2023-04-02T06:30:59.787Z,51.13
2023-04-02T06:33:26.601Z,51.50
2023-04-02T06:35:53.311Z,52.03
2023-04-02T06:38:22.885Z,52.09
2023-04-02T06:41:00.419Z,52.41
2023-04-02T06:43:38.761Z,53.01
2023-04-02T06:46:09.273Z,52.73
2023-04-02T06:48:36.478Z,53.09
2023-04-02T06:51:11.276Z,52.99
2023-04-02T06:53:39.975Z,53.06
2023-04-02T06:56:27.165Z,53.10
2023-04-02T06:58:54.259Z,53.12
2023-04-02T07:01:26.213Z,53.40
2023-04-02T07:03:52.921Z,53.42
2023-04-02T07:06:20.621Z,53.49
2023-04-02T07:08:47.634Z,53.80
2023-04-02T07:11:20.938Z,53.51
2023-04-02T07:13:48.789Z,53.51
2023-04-02T07:16:23.410Z,53.51
2023-04-02T07:18:50.452Z,53.42
2023-04-02T07:23:57.783Z,53.66
2023-04-02T07:26:28.018Z,53.77
2023-04-02T07:28:55.915Z,53.54
2023-04-02T07:31:29.724Z,53.64
2023-04-02T07:33:59.934Z,53.97
2023-04-02T07:36:27.633Z,53.92
2023-04-02T07:38:54.748Z,53.54
2023-04-02T07:41:22.143Z,53.90
2023-04-02T07:43:48.917Z,53.49
2023-04-02T07:46:18.123Z,53.98
2023-04-02T07:48:45.121Z,53.57
2023-04-02T07:51:24.721Z,53.52
2023-04-02T07:53:56.154Z,54.01
2023-04-02T07:56:24.208Z,53.82
2023-04-02T07:58:51.157Z,53.70
2023-04-02T08:01:24.072Z,53.66
2023-04-02T08:03:53.001Z,53.68
2023-04-02T08:06:21.562Z,53.88
2023-04-02T08:08:48.410Z,53.87
2023-04-02T08:11:16.590Z,53.78
2023-04-02T08:13:43.339Z,53.88
2023-04-02T08:16:10.131Z,54.05
2023-04-02T08:18:36.959Z,54.08
2023-04-02T08:21:07.804Z,54.12
2023-04-02T08:23:37.776Z,53.88
2023-04-02T08:26:05.059Z,53.66
2023-04-02T08:28:31.818Z,53.95
2023-04-02T08:30:58.621Z,53.75
2023-04-02T08:33:26.344Z,53.89
2023-04-02T08:38:33.584Z,53.89
2023-04-02T08:41:00.725Z,54.07
2023-04-02T08:46:51.319Z,54.11
2023-04-02T08:49:37.048Z,54.01
2023-04-02T08:52:04.485Z,53.98
2023-04-02T08:54:34.345Z,54.08
2023-04-02T08:57:06.852Z,53.95
2023-04-02T08:59:35.619Z,53.86
2023-04-02T09:02:23.992Z,53.91
2023-04-02T09:04:51.089Z,53.74
2023-04-02T09:07:17.962Z,53.66
2023-04-02T09:09:47.153Z,54.04
2023-04-02T09:12:23.945Z,54.30
2023-04-02T09:15:01.918Z,54.02
2023-04-02T09:17:31.200Z,54.04
2023-04-02T09:20:13.467Z,54.11
2023-04-02T09:22:41.291Z,54.12
2023-04-02T09:25:13.043Z,54.35
2023-04-02T09:27:39.862Z,54.29
2023-04-02T09:30:13.010Z,54.11
2023-04-02T09:32:52.729Z,54.11
2023-04-02T09:35:27.238Z,54.08
2023-04-02T09:38:20.206Z,54.10
2023-04-02T09:40:54.824Z,54.05
2023-04-02T09:43:26.153Z,54.19
2023-04-02T09:46:01.955Z,54.29
2023-04-02T09:48:35.151Z,54.28
2023-04-02T09:51:10.785Z,54.52
2023-04-02T09:53:41.863Z,54.94
2023-04-02T09:56:11.420Z,54.77
2023-04-02T09:58:41.213Z,54.91
2023-04-02T10:31:53.974Z,54.96
2023-04-02T10:34:43.156Z,54.76
2023-04-02T10:37:38.425Z,54.77
2023-04-02T10:40:34.468Z,54.97
2023-04-02T10:43:29.014Z,54.76
2023-04-02T10:46:09.519Z,54.81
2023-04-02T10:48:59.906Z,55.13
2023-04-02T10:51:38.710Z,54.85
2023-04-02T10:54:24.248Z,54.31
2023-04-02T10:56:53.187Z,55.08
2023-04-02T10:59:31.364Z,55.08
2023-04-02T11:06:00.100Z,54.74
2023-04-02T11:08:48.149Z,54.91
2023-04-02T11:14:05.572Z,54.79
2023-04-02T11:16:32.361Z,54.68
2023-04-02T11:19:17.478Z,54.74
2023-04-02T11:22:06.872Z,54.89
2023-04-02T11:24:58.157Z,54.63
2023-04-02T11:27:35.176Z,55.01
2023-04-02T11:30:28.939Z,54.99
2023-04-02T11:32:57.521Z,54.84
2023-04-02T11:35:33.528Z,54.99
2023-04-02T11:38:12.150Z,54.78
2023-04-02T11:40:56.195Z,55.00
2023-04-02T11:43:36.396Z,55.13
2023-04-02T11:46:16.247Z,54.88
2023-04-02T11:48:43.028Z,55.05
2023-04-02T11:51:36.534Z,55.06
2023-04-02T11:54:26.596Z,54.95
2023-04-02T12:00:42.354Z,55.12
2023-04-02T12:03:30.570Z,55.07
2023-04-02T12:06:19.567Z,54.95
2023-04-02T12:09:15.384Z,55.18
2023-04-02T12:11:42.075Z,55.01
2023-04-02T12:14:38.644Z,55.06
2023-04-02T12:17:31.657Z,55.15
2023-04-02T12:20:10.221Z,55.00
2023-04-02T12:23:01.232Z,55.00
2023-04-02T12:25:30.057Z,55.04
2023-04-02T12:31:12.048Z,55.07
2023-04-02T12:33:42.197Z,54.95
2023-04-02T12:36:14.148Z,55.01
2023-04-02T12:39:15.309Z,55.15
2023-04-02T12:41:53.562Z,55.09
2023-04-02T12:44:55.219Z,55.12
2023-04-02T12:52:46.813Z,55.05
2023-04-02T12:55:23.728Z,54.92
2023-04-02T12:57:58.119Z,55.15
2023-04-02T13:00:25.072Z,55.43
2023-04-02T13:03:00.841Z,55.09
2023-04-02T13:13:43.735Z,55.09
2023-04-02T13:16:10.412Z,55.21
2023-04-02T13:18:37.942Z,57.00
2023-04-02T13:21:06.311Z,59.11
2023-04-02T13:23:37.207Z,59.61
2023-04-02T13:26:28.364Z,59.82
2023-04-02T13:29:20.195Z,60.22
2023-04-02T13:31:47.017Z,60.05
2023-04-02T13:34:13.741Z,60.37
2023-04-02T13:36:40.361Z,60.61
2023-04-02T13:41:52.345Z,58.76
2023-04-02T13:44:29.747Z,58.41
2023-04-02T13:46:56.991Z,58.23
2023-04-02T13:49:23.884Z,58.07
2023-04-02T13:52:19.859Z,58.20
2023-04-02T13:54:54.188Z,58.75
2023-04-02T13:57:21.508Z,58.19
2023-04-02T13:59:48.193Z,58.80
2023-04-02T14:02:34.785Z,58.13
2023-04-02T14:05:17.707Z,57.90
2023-04-02T14:08:12.143Z,57.56
2023-04-02T14:11:01.699Z,57.63
2023-04-02T14:13:37.315Z,57.62
2023-04-02T14:16:05.981Z,57.83
2023-04-02T14:18:37.370Z,57.46
2023-04-02T15:39:40.896Z,56.47
2023-04-02T15:42:26.605Z,56.53
2023-04-02T15:45:05.558Z,56.58
2023-04-02T15:47:45.769Z,56.87
2023-04-02T15:53:15.438Z,56.84
2023-04-02T16:07:24.010Z,56.67
2023-04-02T16:10:16.557Z,56.45
2023-04-02T16:12:44.784Z,56.43
2023-04-02T16:15:15.066Z,56.35
2023-04-02T16:17:48.872Z,56.31
2023-04-02T16:20:17.303Z,56.60
2023-04-02T16:22:59.349Z,56.75
2023-04-02T16:25:28.861Z,56.95
2023-04-02T16:28:11.926Z,56.71
2023-04-02T16:30:44.629Z,56.85
2023-04-02T16:33:33.069Z,56.96
2023-04-02T16:38:59.226Z,57.03
2023-04-02T16:41:28.953Z,56.73
2023-04-02T16:44:04.005Z,56.98
2023-04-02T16:46:51.088Z,56.81
2023-04-02T16:49:48.990Z,56.87
2023-04-02T16:52:26.879Z,56.91
2023-04-02T16:55:03.800Z,56.98
2023-04-02T16:57:38.170Z,56.89
2023-04-02T17:00:11.122Z,56.85
2023-04-02T17:02:46.114Z,56.78
2023-04-02T17:05:32.493Z,56.67
2023-04-02T17:08:16.542Z,56.70
2023-04-02T17:10:50.766Z,56.72
2023-04-02T17:13:38.741Z,56.69
2023-04-02T17:19:17.881Z,56.38
2023-04-02T17:45:57.368Z,56.95
2023-04-02T17:48:31.916Z,57.08
2023-04-02T18:02:25.181Z,56.85
2023-04-02T18:04:54.653Z,56.35
2023-04-02T18:07:52.057Z,56.29
2023-04-02T18:10:38.607Z,56.36
2023-04-02T18:13:28.675Z,56.53
2023-04-02T18:16:13.470Z,56.62
2023-04-02T18:18:58.754Z,56.86
2023-04-02T18:21:33.379Z,56.87
2023-04-02T18:23:59.856Z,56.97
2023-04-02T18:26:50.214Z,56.83
2023-04-02T18:29:21.293Z,57.03
2023-04-02T18:31:50.952Z,57.08
2023-04-02T18:34:29.827Z,56.94
2023-04-02T18:37:01.488Z,56.86
2023-04-02T18:39:49.501Z,56.88
2023-04-02T18:42:37.241Z,57.07
2023-04-02T18:45:20.907Z,56.94
2023-04-02T18:48:13.983Z,56.84
2023-04-02T18:50:45.829Z,57.00
2023-04-02T18:53:20.612Z,56.86
2023-04-02T18:56:04.875Z,56.90
2023-04-02T18:58:38.198Z,56.93
2023-04-02T19:01:06.475Z,56.56
2023-04-02T19:03:44.679Z,57.06
2023-04-02T19:06:21.185Z,56.96
2023-04-02T19:09:01.049Z,57.06
2023-04-02T19:11:31.292Z,56.96
2023-04-02T19:14:02.156Z,56.98
2023-04-02T19:16:34.651Z,56.99
2023-04-02T19:19:23.688Z,57.14
2023-04-02T19:22:01.718Z,57.04
2023-04-02T19:25:04.847Z,56.94
2023-04-02T19:27:38.074Z,56.90
2023-04-02T19:30:11.598Z,56.99
2023-04-02T19:32:53.238Z,56.99
2023-04-02T19:35:27.550Z,56.98
2023-04-02T19:38:06.133Z,56.83
2023-04-02T19:40:53.653Z,57.06
2023-04-02T19:43:20.284Z,56.94
2023-04-02T19:45:48.302Z,56.81
2023-04-02T19:48:17.370Z,56.91
2023-04-02T19:50:44.387Z,57.02
2023-04-02T19:53:11.137Z,57.12
2023-04-02T19:55:38.068Z,56.55
2023-04-02T19:58:18.915Z,56.86
2023-04-02T20:00:46.384Z,56.63
2023-04-02T20:03:12.997Z,57.13
2023-04-02T20:05:39.544Z,56.75
2023-04-02T20:08:06.151Z,57.13
2023-04-02T20:10:32.660Z,57.05
2023-04-02T20:12:59.183Z,56.67
2023-04-02T20:15:25.799Z,56.87
2023-04-02T20:17:52.384Z,56.87
2023-04-02T20:20:19.126Z,56.76
2023-04-02T20:22:45.909Z,56.66
2023-04-02T20:25:12.458Z,56.46
2023-04-02T20:27:39.007Z,57.25
2023-04-02T20:30:06.078Z,56.81
2023-04-02T20:32:33.267Z,57.09
2023-04-02T20:35:01.876Z,56.73
2023-04-02T20:37:28.395Z,57.02
2023-04-02T20:39:56.534Z,56.72
2023-04-02T20:42:23.257Z,56.76
2023-04-02T20:44:49.827Z,57.21
2023-04-02T20:47:16.620Z,56.95
2023-04-02T20:49:43.137Z,56.56
2023-04-02T20:52:09.718Z,56.43
2023-04-02T20:54:36.343Z,56.61
2023-04-02T20:57:03.164Z,56.58
2023-04-02T20:59:29.694Z,56.19
2023-04-02T21:01:56.368Z,56.43
2023-04-02T21:04:23.069Z,56.58
2023-04-02T21:06:49.636Z,56.57
2023-04-02T21:09:17.329Z,56.47
2023-04-02T21:11:43.931Z,56.45
2023-04-02T21:14:10.918Z,56.46
2023-04-02T21:16:37.654Z,56.71
2023-04-02T21:19:06.682Z,56.67
2023-04-02T21:21:33.566Z,56.66
2023-04-02T21:24:01.790Z,56.55
2023-04-02T21:26:30.115Z,56.40
2023-04-02T21:28:57.148Z,56.47
2023-04-02T21:31:25.554Z,56.64
2023-04-02T21:33:56.644Z,56.66
2023-04-02T21:36:24.758Z,56.57
2023-04-02T21:38:53.875Z,56.47
2023-04-02T21:41:22.341Z,56.39
2023-04-02T21:43:48.960Z,56.50
2023-04-02T21:46:16.325Z,56.56
2023-04-02T21:48:43.024Z,56.63
2023-04-02T21:51:23.306Z,56.42
2023-04-02T21:53:50.092Z,56.67
2023-04-02T21:56:18.058Z,56.40
2023-04-02T21:58:45.371Z,56.48
2023-04-02T22:01:23.830Z,56.51
2023-04-02T22:03:54.770Z,56.58
2023-04-02T22:06:21.583Z,56.55
2023-04-02T22:09:09.555Z,56.50
2023-04-02T22:11:38.610Z,56.55
2023-04-02T22:14:05.885Z,56.71
2023-04-02T22:16:33.636Z,56.73
2023-04-02T22:19:01.942Z,56.48
2023-04-02T22:21:29.290Z,56.64
2023-04-02T22:23:55.890Z,56.47
2023-04-02T22:26:23.128Z,56.29
2023-04-02T22:28:49.736Z,56.58
2023-04-02T22:31:18.072Z,56.37
2023-04-02T22:33:44.908Z,56.49
2023-04-02T22:36:11.728Z,56.48
2023-04-02T22:38:38.406Z,56.31
2023-04-02T22:41:15.518Z,56.41
2023-04-02T22:43:43.848Z,56.40
2023-04-02T22:46:11.319Z,56.45
2023-04-02T22:48:39.816Z,56.58
2023-04-02T22:51:07.663Z,56.43
2023-04-02T22:53:34.921Z,56.12
2023-04-02T22:56:03.189Z,56.40
2023-04-02T22:58:29.822Z,56.28
2023-04-02T23:00:56.416Z,56.86
2023-04-02T23:03:22.988Z,56.45
2023-04-02T23:06:03.794Z,56.39
2023-04-02T23:08:30.545Z,56.63
2023-04-02T23:11:04.831Z,56.28
2023-04-02T23:13:31.531Z,56.48
2023-04-02T23:15:58.268Z,56.51
2023-04-02T23:18:24.836Z,56.26
2023-04-02T23:20:51.397Z,56.27
2023-04-02T23:23:18.007Z,56.68
2023-04-02T23:25:44.583Z,56.01
2023-04-02T23:28:12.349Z,56.33
2023-04-02T23:30:39.126Z,56.32
2023-04-02T23:33:05.723Z,56.28
2023-04-02T23:35:32.273Z,56.41
2023-04-02T23:37:59.084Z,56.25
2023-04-02T23:40:26.113Z,56.31
2023-04-02T23:42:52.811Z,56.22
2023-04-02T23:45:19.374Z,56.02
2023-04-02T23:47:46.064Z,56.00
2023-04-02T23:50:12.663Z,56.49
2023-04-02T23:52:39.239Z,56.14
2023-04-02T23:55:06.652Z,56.01
2023-04-02T23:57:33.322Z,56.90
2023-04-02T23:59:59.960Z,56.11
